Time;durP1;ratioP1;P1;durP2;ratioP2;P2;SDS_P1;SDS_P2;PMS_P1;PMS_P2;Temp;Humidity;BMP_temperature;BMP_pressure;BME280_temperature;BME280_humidity;BME280_pressure;Samples;Min_cycle;Max_cycle;Signal;HPM_P1;HPM_P2
2021/12/22 00:00:30;;;;;;;228.10;33.63;;;-2.80;99.90;;;;;;5052344;28;20087;-65
2021/12/22 00:02:57;;;;;;;298.48;39.50;;;-2.80;99.90;;;;;;5053773;28;20458;-66
2021/12/22 00:05:26;;;;;;;127.05;30.23;;;-2.80;99.90;;;;;;5051930;28;20024;-65
2021/12/22 00:07:53;;;;;;;166.85;30.67;;;-2.80;99.90;;;;;;5035871;28;20063;-65
2021/12/22 00:10:20;;;;;;;207.38;34.20;;;-2.90;99.90;;;;;;5053174;28;20036;-65
2021/12/22 00:12:46;;;;;;;241.02;36.53;;;-2.90;99.90;;;;;;5035565;28;20025;-66
2021/12/22 00:15:13;;;;;;;111.75;29.80;;;-2.90;99.90;;;;;;5054796;28;20063;-66
2021/12/22 00:17:39;;;;;;;158.02;30.70;;;-2.90;99.90;;;;;;5054430;28;20032;-65
2021/12/22 00:20:07;;;;;;;95.13;29.13;;;-2.80;99.90;;;;;;5019177;28;20025;-65
2021/12/22 00:22:32;;;;;;;235.40;32.17;;;-2.80;99.90;;;;;;5053063;28;20360;-65
2021/12/22 00:24:58;;;;;;;59.53;26.33;;;-2.90;99.90;;;;;;5035726;28;20124;-66
2021/12/22 00:27:23;;;;;;;95.50;26.08;;;-3.00;99.90;;;;;;5051746;28;20048;-66
2021/12/22 00:29:51;;;;;;;118.85;28.23;;;-2.90;99.90;;;;;;5053171;28;20029;-66
2021/12/22 00:32:17;;;;;;;154.23;30.85;;;-2.90;99.90;;;;;;5053200;28;20017;-66
2021/12/22 00:34:48;;;;;;;140.00;31.27;;;-2.90;99.90;;;;;;5035047;28;20036;-66
2021/12/22 00:37:15;;;;;;;156.98;30.83;;;-2.90;99.90;;;;;;5035455;28;20486;-66
2021/12/22 00:39:41;;;;;;;297.05;34.80;;;-3.00;99.90;;;;;;5051634;28;20394;-66
2021/12/22 00:42:07;;;;;;;205.05;33.28;;;-3.10;99.90;;;;;;5035645;28;20071;-66
2021/12/22 00:44:32;;;;;;;107.32;26.38;;;-3.10;99.90;;;;;;5053544;28;20056;-66
2021/12/22 00:46:58;;;;;;;105.45;29.52;;;-3.10;99.90;;;;;;5055419;28;20029;-66
2021/12/22 00:49:23;;;;;;;165.48;29.65;;;-3.10;99.90;;;;;;5055344;28;20394;-66
2021/12/22 00:51:49;;;;;;;144.88;30.40;;;-3.10;99.90;;;;;;5055725;28;20071;-64
2021/12/22 00:54:15;;;;;;;123.40;31.50;;;-3.10;99.90;;;;;;5055152;28;20109;-64
2021/12/22 00:56:40;;;;;;;93.95;26.95;;;-3.10;99.90;;;;;;5055040;28;20029;-65
2021/12/22 00:59:06;;;;;;;123.25;28.83;;;-3.10;99.90;;;;;;5038722;28;20025;-65
2021/12/22 01:01:31;;;;;;;165.82;31.83;;;-3.00;99.90;;;;;;5022501;28;20021;-65
2021/12/22 01:03:57;;;;;;;239.43;32.70;;;-3.00;99.90;;;;;;5055404;28;20021;-65
2021/12/22 01:06:23;;;;;;;238.77;33.25;;;-3.10;99.90;;;;;;5055246;28;20033;-66
2021/12/22 01:08:49;;;;;;;289.17;34.97;;;-3.20;99.90;;;;;;5056615;28;20035;-66
2021/12/22 01:11:14;;;;;;;88.65;27.50;;;-3.20;99.90;;;;;;5056362;28;20047;-65
2021/12/22 01:13:40;;;;;;;149.35;28.02;;;-3.20;99.90;;;;;;5056167;28;20035;-64
2021/12/22 01:16:06;;;;;;;350.80;38.42;;;-3.10;99.90;;;;;;5038098;28;20429;-64
2021/12/22 01:18:35;;;;;;;172.10;30.15;;;-3.20;99.90;;;;;;5038703;28;20063;-65
2021/12/22 01:21:14;;;;;;;146.38;29.83;;;-3.20;99.90;;;;;;5055009;28;20014;-65
2021/12/22 01:23:59;;;;;;;133.15;26.08;;;-3.20;99.90;;;;;;5054630;28;20397;-65
2021/12/22 01:26:26;;;;;;;69.80;23.83;;;-3.20;99.90;;;;;;5027064;28;20021;-65
2021/12/22 01:28:52;;;;;;;95.82;25.02;;;-3.20;99.90;;;;;;5056488;28;20028;-65
2021/12/22 01:31:17;;;;;;;182.73;28.67;;;-3.10;99.90;;;;;;5037963;28;20025;-67
2021/12/22 01:33:43;;;;;;;175.68;27.75;;;-3.20;99.90;;;;;;5054405;28;20391;-66
2021/12/22 01:36:09;;;;;;;299.88;36.92;;;-3.20;99.90;;;;;;5054110;28;20056;-66
2021/12/22 01:38:34;;;;;;;274.45;30.52;;;-3.20;99.90;;;;;;5021082;28;20033;-66
2021/12/22 01:41:00;;;;;;;105.18;25.73;;;-3.30;99.90;;;;;;5054281;28;20110;-66
2021/12/22 01:43:26;;;;;;;302.52;36.90;;;-3.40;99.90;;;;;;5037544;28;20032;-66
2021/12/22 01:49:23;;;;;;;193.57;30.10;;;-3.40;99.90;;;;;;5092053;28;20708;-65
2021/12/22 01:54:48;;;;;;;123.47;27.17;;;-3.40;99.90;;;;;;5109603;27;20391;-65
2021/12/22 01:57:15;;;;;;;78.78;23.92;;;-3.40;99.90;;;;;;5093325;28;20140;-65
2021/12/22 01:59:43;;;;;;;136.30;28.08;;;-3.40;99.90;;;;;;5093449;28;20068;-65
2021/12/22 02:02:12;;;;;;;193.60;29.20;;;-3.30;99.90;;;;;;5076226;28;20490;-65
2021/12/22 02:04:38;;;;;;;97.88;24.73;;;-3.30;99.90;;;;;;5076391;28;20032;-65
2021/12/22 02:07:05;;;;;;;115.07;26.70;;;-3.40;99.90;;;;;;5111515;28;20015;-65
2021/12/22 02:09:51;;;;;;;172.10;29.10;;;-3.40;99.90;;;;;;5111988;28;20508;-66
2021/12/22 02:12:17;;;;;;;268.85;31.98;;;-3.50;99.90;;;;;;5111633;28;20456;-65
2021/12/22 02:14:45;;;;;;;81.50;25.95;;;-3.50;99.90;;;;;;5093410;28;20514;-66
2021/12/22 02:17:12;;;;;;;106.47;28.00;;;-3.50;99.90;;;;;;5076665;28;20020;-65
2021/12/22 02:19:42;;;;;;;76.35;24.35;;;-3.50;99.90;;;;;;5094231;28;20016;-65
2021/12/22 02:22:11;;;;;;;147.90;28.23;;;-3.50;99.90;;;;;;5094229;28;20461;-65
2021/12/22 02:24:38;;;;;;;76.47;24.70;;;-3.50;99.90;;;;;;5092987;28;20065;-66
2021/12/22 02:27:10;;;;;;;145.30;27.92;;;-3.50;99.90;;;;;;5093571;28;20020;-66
2021/12/22 02:29:39;;;;;;;329.13;35.53;;;-3.40;99.90;;;;;;5094459;28;20477;-65
2021/12/22 02:32:21;;;;;;;62.90;24.33;;;-3.50;99.90;;;;;;5093085;28;20077;-66
2021/12/22 02:34:48;;;;;;;63.40;23.03;;;-3.40;99.90;;;;;;5092493;28;20020;-65
2021/12/22 02:37:18;;;;;;;80.63;26.17;;;-3.40;99.90;;;;;;5092817;28;20376;-66
2021/12/22 02:39:46;;;;;;;105.85;25.90;;;-3.40;99.90;;;;;;5111189;28;20044;-65
2021/12/22 02:42:13;;;;;;;96.85;24.05;;;-3.40;99.90;;;;;;5093278;28;20536;-66
2021/12/22 02:44:38;;;;;;;73.60;24.35;;;-3.40;99.90;;;;;;5092959;28;20114;-66
2021/12/22 02:47:24;;;;;;;96.43;23.48;;;-3.30;99.90;;;;;;5093346;28;20055;-66
2021/12/22 02:49:50;;;;;;;150.02;27.90;;;-3.30;99.90;;;;;;5093123;28;20020;-66
2021/12/22 02:52:17;;;;;;;83.35;23.15;;;-3.40;99.90;;;;;;5092497;28;20036;-66
2021/12/22 02:54:51;;;;;;;208.68;31.02;;;-3.40;99.90;;;;;;5092409;28;20085;-66
2021/12/22 02:57:27;;;;;;;306.40;34.78;;;-3.40;99.90;;;;;;5076422;28;20026;-66
2021/12/22 03:00:24;;;;;;;206.00;27.52;;;-3.50;99.90;;;;;;5077269;28;20024;-65
2021/12/22 03:02:57;;;;;;;44.35;21.58;;;-3.50;99.90;;;;;;5095070;28;20030;-67
2021/12/22 03:05:24;;;;;;;131.48;26.42;;;-3.50;99.90;;;;;;5065709;28;20023;-65
2021/12/22 03:07:50;;;;;;;341.60;34.22;;;-3.50;99.90;;;;;;5078423;28;20031;-65
2021/12/22 03:10:18;;;;;;;204.52;27.88;;;-3.50;99.90;;;;;;5061943;28;20023;-66
2021/12/22 03:12:46;;;;;;;205.95;27.80;;;-3.50;99.90;;;;;;5061806;28;20469;-66
2021/12/22 03:15:12;;;;;;;62.33;22.10;;;-3.50;99.90;;;;;;5096816;28;20027;-65
2021/12/22 03:17:39;;;;;;;192.15;28.30;;;-3.60;99.90;;;;;;5096449;28;20013;-65
2021/12/22 03:20:08;;;;;;;114.00;24.20;;;-3.60;99.90;;;;;;5078817;28;20028;-66
2021/12/22 03:22:35;;;;;;;170.73;27.08;;;-3.60;99.90;;;;;;5079096;28;20484;-67
2021/12/22 03:25:01;;;;;;;84.47;23.27;;;;;;;;;;5096808;28;20031;-65
2021/12/22 03:27:27;;;;;;;122.07;25.25;;;-3.80;99.90;;;;;;5078893;28;20027;-65
2021/12/22 03:29:53;;;;;;;171.23;26.77;;;-3.70;99.90;;;;;;5079645;28;20103;-65
2021/12/22 03:32:19;;;;;;;178.32;27.98;;;-3.70;99.90;;;;;;5078845;28;20028;-67
2021/12/22 03:34:45;;;;;;;192.73;27.38;;;-3.70;99.90;;;;;;5096662;28;20031;-65
2021/12/22 03:37:12;;;;;;;239.48;34.60;;;-3.90;99.90;;;;;;5078526;28;20024;-65
2021/12/22 03:39:38;;;;;;;84.68;21.90;;;-4.00;99.90;;;;;;5078754;28;20027;-67
2021/12/22 03:42:06;;;;;;;91.38;23.73;;;-4.00;99.90;;;;;;5095907;28;20024;-65
2021/12/22 03:44:32;;;;;;;52.30;22.80;;;-3.90;99.90;;;;;;5095814;28;20016;-65
2021/12/22 03:47:00;;;;;;;187.63;27.85;;;-3.90;99.90;;;;;;5096029;28;20020;-65
2021/12/22 03:49:26;;;;;;;95.07;22.58;;;-4.00;99.90;;;;;;5061573;28;20032;-64
2021/12/22 03:51:51;;;;;;;52.63;20.17;;;-4.00;99.90;;;;;;5078036;28;20023;-65
2021/12/22 03:54:17;;;;;;;88.57;23.52;;;-4.00;99.90;;;;;;5095677;28;20024;-65
2021/12/22 03:56:42;;;;;;;45.63;21.83;;;-4.00;99.90;;;;;;5095876;28;20035;-65
2021/12/22 03:59:08;;;;;;;43.40;20.42;;;-3.90;99.90;;;;;;5077800;28;20377;-65
2021/12/22 04:01:34;;;;;;;82.15;25.17;;;-3.90;99.90;;;;;;5077428;28;20024;-66
2021/12/22 04:04:06;;;;;;;52.30;21.27;;;-3.90;99.90;;;;;;5095689;28;20056;-66
2021/12/22 04:06:32;;;;;;;43.90;20.48;;;-4.00;99.90;;;;;;5095945;28;20358;-66
2021/12/22 04:08:57;;;;;;;71.25;22.15;;;-4.00;99.90;;;;;;5077549;28;20103;-66
2021/12/22 04:11:23;;;;;;;49.08;21.25;;;-4.00;99.90;;;;;;5095236;28;20043;-66
2021/12/22 04:13:49;;;;;;;43.00;20.13;;;-4.10;99.90;;;;;;5095677;28;20035;-67
2021/12/22 04:16:14;;;;;;;37.28;19.23;;;-4.10;99.90;;;;;;5094743;28;20055;-66
2021/12/22 04:18:40;;;;;;;38.92;19.23;;;-4.20;99.90;;;;;;5060272;28;20082;-67
2021/12/22 04:21:06;;;;;;;36.22;19.05;;;-4.20;99.90;;;;;;5077121;28;20496;-67
2021/12/22 04:23:31;;;;;;;35.00;16.90;;;-4.20;99.90;;;;;;5077286;28;20129;-66
2021/12/22 04:25:57;;;;;;;32.63;17.13;;;-4.30;99.90;;;;;;5095510;28;20457;-67
2021/12/22 04:28:22;;;;;;;42.17;18.83;;;-4.30;99.90;;;;;;5060256;28;20103;-67
2021/12/22 04:30:50;;;;;;;38.17;18.00;;;-4.40;99.90;;;;;;5095505;28;20106;-66
2021/12/22 04:33:19;;;;;;;39.63;18.27;;;-4.40;99.90;;;;;;5077437;28;20028;-66
2021/12/22 04:35:45;;;;;;;36.67;18.00;;;-4.40;99.90;;;;;;5096039;28;20030;-65
2021/12/22 04:38:11;;;;;;;38.22;18.02;;;-4.30;99.90;;;;;;5060517;28;20020;-66
2021/12/22 04:40:37;;;;;;;35.45;17.42;;;-4.30;99.90;;;;;;5077122;28;20193;-65
2021/12/22 04:43:03;;;;;;;42.67;18.35;;;-4.30;99.90;;;;;;5095432;28;20034;-65
2021/12/22 04:45:29;;;;;;;42.40;18.85;;;-4.20;99.90;;;;;;5077457;28;20118;-66
2021/12/22 04:47:54;;;;;;;32.78;17.25;;;-4.20;99.90;;;;;;5059968;28;20063;-65
2021/12/22 04:50:22;;;;;;;56.80;18.30;;;-4.20;99.90;;;;;;5076970;28;20077;-66
2021/12/22 04:52:56;;;;;;;72.63;20.27;;;-4.10;99.90;;;;;;5076806;28;20126;-65
2021/12/22 04:55:25;;;;;;;73.07;19.05;;;-4.10;99.90;;;;;;5094704;28;20024;-67
2021/12/22 04:57:51;;;;;;;40.42;19.15;;;-4.10;99.90;;;;;;5095279;28;20099;-65
2021/12/22 05:00:17;;;;;;;109.95;23.73;;;-4.20;99.90;;;;;;5095184;28;20133;-65
2021/12/22 05:02:42;;;;;;;45.20;18.52;;;-4.20;99.90;;;;;;5061233;28;20032;-66
2021/12/22 05:05:09;;;;;;;41.88;18.10;;;-4.20;99.90;;;;;;5078893;28;20156;-66
2021/12/22 05:07:34;;;;;;;34.53;18.13;;;-4.30;99.90;;;;;;5077625;28;20101;-65
2021/12/22 05:10:00;;;;;;;36.30;18.13;;;-4.30;99.90;;;;;;5076716;28;20028;-67
2021/12/22 05:12:25;;;;;;;34.03;17.85;;;-4.30;99.90;;;;;;5076432;28;20529;-65
2021/12/22 05:14:52;;;;;;;36.25;18.15;;;-4.30;99.90;;;;;;5076718;28;20454;-65
2021/12/22 05:17:24;;;;;;;40.65;19.58;;;-4.30;99.90;;;;;;5076289;28;20024;-65
2021/12/22 05:19:50;;;;;;;38.80;19.13;;;-4.20;99.90;;;;;;5094524;28;20024;-67
2021/12/22 05:22:15;;;;;;;44.65;16.98;;;-4.20;99.90;;;;;;5076535;28;20119;-67
2021/12/22 05:24:41;;;;;;;35.40;17.45;;;-4.20;99.90;;;;;;5076115;28;20024;-65
2021/12/22 05:27:08;;;;;;;35.42;17.80;;;-4.20;99.90;;;;;;5076240;28;20036;-67
2021/12/22 05:29:34;;;;;;;33.25;17.20;;;-4.20;99.90;;;;;;5076389;28;20040;-65
2021/12/22 05:32:01;;;;;;;34.38;16.63;;;-4.20;99.90;;;;;;5076983;28;20084;-65
2021/12/22 05:34:27;;;;;;;35.55;18.05;;;-4.20;99.90;;;;;;5076388;28;20019;-65
2021/12/22 05:36:52;;;;;;;36.08;17.77;;;-4.30;99.90;;;;;;5076383;28;20063;-65
2021/12/22 05:39:18;;;;;;;37.47;17.80;;;-4.30;99.90;;;;;;5058874;28;20043;-67
2021/12/22 05:41:44;;;;;;;38.85;17.77;;;-4.40;99.90;;;;;;5075737;28;20035;-65
2021/12/22 05:44:09;;;;;;;35.72;19.67;;;-4.40;99.90;;;;;;5075966;28;20080;-67
2021/12/22 05:46:35;;;;;;;62.92;21.98;;;-4.40;99.90;;;;;;5075684;28;20020;-65
2021/12/22 05:49:01;;;;;;;57.92;20.58;;;-4.50;99.90;;;;;;5075745;28;20055;-66
2021/12/22 05:51:28;;;;;;;62.72;20.95;;;-4.50;99.90;;;;;;5075685;28;20024;-66
2021/12/22 05:53:53;;;;;;;67.85;22.00;;;-4.50;99.90;;;;;;5054926;28;20521;-66
2021/12/22 05:56:19;;;;;;;192.32;23.83;;;-4.50;99.90;;;;;;5053309;28;20053;-66
2021/12/22 05:58:45;;;;;;;42.53;17.70;;;-4.50;99.90;;;;;;5052450;28;20063;-66
2021/12/22 06:01:11;;;;;;;109.45;20.27;;;-4.50;99.90;;;;;;5053635;28;20104;-66
2021/12/22 06:03:36;;;;;;;46.58;18.55;;;-4.50;99.90;;;;;;5052656;28;20033;-67
2021/12/22 06:06:02;;;;;;;209.98;27.65;;;-4.70;99.90;;;;;;5052159;28;20552;-66
2021/12/22 06:08:28;;;;;;;109.13;26.00;;;-4.50;99.90;;;;;;5052386;28;20466;-66
2021/12/22 06:10:54;;;;;;;35.38;17.55;;;-4.60;99.90;;;;;;5052119;28;20025;-66
2021/12/22 06:13:19;;;;;;;129.02;19.88;;;-4.60;99.90;;;;;;5052422;28;20076;-67
2021/12/22 06:15:45;;;;;;;41.58;17.15;;;-4.60;99.90;;;;;;5052777;28;20033;-66
2021/12/22 06:18:11;;;;;;;75.53;16.73;;;;;;;;;;5036193;28;20426;-66
2021/12/22 06:20:37;;;;;;;133.23;20.02;;;;;;;;;;5052030;28;20013;-66
2021/12/22 06:23:04;;;;;;;169.02;21.60;;;-4.70;99.90;;;;;;5052353;28;20056;-66
2021/12/22 06:25:30;;;;;;;48.95;15.93;;;-4.80;99.90;;;;;;5035339;28;20029;-66
2021/12/22 06:27:55;;;;;;;91.63;19.27;;;-4.80;99.90;;;;;;5052178;28;20091;-67
2021/12/22 06:30:23;;;;;;;96.35;17.83;;;-4.90;99.90;;;;;;5053626;28;20094;-65
2021/12/22 06:32:49;;;;;;;142.82;20.50;;;-4.90;99.90;;;;;;5053060;28;20029;-67
2021/12/22 06:35:15;;;;;;;187.93;24.80;;;-5.00;99.90;;;;;;5051944;28;20112;-66
2021/12/22 06:37:43;;;;;;;47.95;17.83;;;-4.90;99.90;;;;;;5036001;28;20017;-66
2021/12/22 06:40:09;;;;;;;76.53;18.00;;;-5.00;99.90;;;;;;5039379;28;20053;-67
2021/12/22 06:42:36;;;;;;;48.92;19.27;;;-5.10;99.90;;;;;;5060938;28;20029;-67
2021/12/22 06:45:04;;;;;;;41.95;17.60;;;-5.00;99.90;;;;;;5057702;28;20485;-67
2021/12/22 06:47:30;;;;;;;47.15;17.10;;;-5.00;99.90;;;;;;5057246;28;20546;-67
2021/12/22 06:49:55;;;;;;;90.53;20.35;;;-5.00;99.90;;;;;;5057107;28;20150;-67
2021/12/22 06:52:21;;;;;;;143.70;22.95;;;-5.00;99.90;;;;;;5055637;28;20122;-67
2021/12/22 06:54:46;;;;;;;139.20;23.17;;;-5.00;99.90;;;;;;5055572;28;20031;-67
2021/12/22 06:57:15;;;;;;;109.57;20.83;;;-5.10;99.90;;;;;;5056768;28;20036;-66
2021/12/22 06:59:40;;;;;;;133.40;22.73;;;-5.10;99.90;;;;;;5055172;28;20021;-67
2021/12/22 07:02:06;;;;;;;110.38;22.25;;;-5.10;99.90;;;;;;5056653;28;20078;-67
2021/12/22 07:04:32;;;;;;;131.40;22.50;;;-5.10;99.90;;;;;;5056726;28;20113;-67
2021/12/22 07:06:57;;;;;;;68.05;20.27;;;-5.10;99.90;;;;;;5056338;28;20090;-66
2021/12/22 07:09:26;;;;;;;55.78;17.88;;;-5.00;99.90;;;;;;5055304;28;20382;-66
2021/12/22 07:11:51;;;;;;;46.97;19.15;;;-5.10;99.90;;;;;;5039120;28;20022;-67
2021/12/22 07:14:18;;;;;;;41.92;18.65;;;-5.10;99.90;;;;;;5056268;28;20037;-66
2021/12/22 07:16:45;;;;;;;77.97;22.65;;;-5.10;99.90;;;;;;5055496;28;20099;-66
2021/12/22 07:19:11;;;;;;;67.60;19.08;;;-5.00;99.90;;;;;;5038447;28;20025;-66
2021/12/22 07:21:37;;;;;;;56.17;18.77;;;-5.10;99.90;;;;;;5038198;28;20077;-66
2021/12/22 07:24:03;;;;;;;72.32;19.17;;;-5.10;99.90;;;;;;5055018;28;20116;-66
2021/12/22 07:26:29;;;;;;;89.97;23.13;;;-5.10;99.90;;;;;;5054522;28;20504;-66
2021/12/22 07:28:55;;;;;;;61.22;19.60;;;-5.20;99.90;;;;;;5056351;28;20032;-66
2021/12/22 07:31:26;;;;;;;40.75;18.90;;;-5.20;99.90;;;;;;5055307;28;20025;-66
2021/12/22 07:34:07;;;;;;;46.97;19.05;;;-5.20;99.90;;;;;;5051817;28;20037;-71
2021/12/22 07:36:40;;;;;;;50.55;20.05;;;-5.10;99.90;;;;;;5053710;28;20024;-71
2021/12/22 07:39:06;;;;;;;64.43;21.88;;;-5.10;99.90;;;;;;5053983;28;20053;-72
2021/12/22 07:41:31;;;;;;;45.08;19.10;;;-5.10;99.90;;;;;;5054032;28;20033;-71
2021/12/22 07:43:57;;;;;;;46.65;21.10;;;-5.10;99.90;;;;;;5054515;28;20029;-71
2021/12/22 07:46:23;;;;;;;55.22;20.52;;;-5.10;99.90;;;;;;5055735;28;20029;-71
2021/12/22 07:48:49;;;;;;;50.22;22.42;;;-5.00;99.90;;;;;;5053749;28;20415;-71
2021/12/22 07:51:15;;;;;;;56.75;23.38;;;-5.00;99.90;;;;;;5036502;28;20032;-70
2021/12/22 07:53:41;;;;;;;46.55;23.15;;;-4.90;99.90;;;;;;5035614;28;20120;-71
2021/12/22 07:56:06;;;;;;;46.35;23.35;;;-4.90;99.90;;;;;;5035977;28;20017;-70
2021/12/22 07:58:33;;;;;;;49.70;22.83;;;-4.80;99.90;;;;;;5049685;28;20120;-71
2021/12/22 08:01:00;;;;;;;43.80;21.40;;;-4.60;99.90;;;;;;5057459;28;20500;-69
2021/12/22 08:03:26;;;;;;;48.83;22.52;;;-4.50;99.90;;;;;;5055386;28;20044;-70
2021/12/22 08:05:52;;;;;;;44.42;21.58;;;-4.30;99.90;;;;;;5062907;28;20370;-73
2021/12/22 08:08:19;;;;;;;49.90;22.73;;;-4.00;99.90;;;;;;5053841;28;20057;-71
2021/12/22 08:10:46;;;;;;;49.17;22.10;;;-3.60;99.90;;;;;;5053626;28;20592;-71
2021/12/22 08:13:12;;;;;;;38.22;20.10;;;-3.20;99.90;;;;;;5037243;28;20063;-70
2021/12/22 08:15:38;;;;;;;38.92;19.75;;;-2.70;99.90;;;;;;5060435;28;20393;-71
2021/12/22 08:18:04;;;;;;;30.77;16.42;;;-2.60;99.90;;;;;;5070009;28;20111;-70
2021/12/22 08:20:30;;;;;;;30.75;16.50;;;-2.60;99.90;;;;;;5036006;28;20080;-71
2021/12/22 08:22:57;;;;;;;29.13;15.55;;;-2.60;99.90;;;;;;5039461;28;20386;-71
2021/12/22 08:25:22;;;;;;;26.27;15.00;;;-2.40;99.90;;;;;;5048972;28;20033;-71
2021/12/22 08:27:48;;;;;;;22.95;13.75;;;-2.30;99.90;;;;;;5045951;28;20440;-66
2021/12/22 08:30:18;;;;;;;24.15;14.35;;;-2.20;99.90;;;;;;5069694;28;20028;-66
2021/12/22 08:32:44;;;;;;;27.58;13.98;;;-2.10;99.90;;;;;;5065932;28;20505;-68
2021/12/22 08:35:12;;;;;;;25.85;13.57;;;-2.20;99.90;;;;;;5052776;28;20021;-66
2021/12/22 08:40:25;;;;;;;28.88;13.60;;;-2.70;99.90;;;;;;5051755;28;20049;-67
2021/12/22 08:42:51;;;;;;;26.17;14.07;;;-2.70;99.90;;;;;;5054416;28;20024;-67
2021/12/22 08:45:17;;;;;;;29.48;14.98;;;-2.70;99.90;;;;;;5071237;28;20028;-66
2021/12/22 08:47:44;;;;;;;30.15;15.18;;;-2.50;99.90;;;;;;5072797;28;20432;-65
2021/12/22 08:50:12;;;;;;;28.58;15.68;;;-1.70;99.90;;;;;;5072860;28;20124;-65
2021/12/22 08:52:38;;;;;;;23.63;14.40;;;-1.00;99.90;;;;;;5056082;28;20040;-66
2021/12/22 08:55:05;;;;;;;22.88;12.95;;;-0.40;99.90;;;;;;5073969;28;20024;-65
2021/12/22 08:57:31;;;;;;;21.67;11.85;;;0.00;99.90;;;;;;5055754;28;20029;-66
2021/12/22 08:59:56;;;;;;;17.15;11.77;;;0.30;99.90;;;;;;5054443;28;20041;-65
2021/12/22 09:02:22;;;;;;;16.73;11.18;;;0.80;99.90;;;;;;5053765;28;20538;-67
2021/12/22 09:04:48;;;;;;;17.60;10.68;;;1.00;99.90;;;;;;5071672;28;20125;-66
2021/12/22 09:07:14;;;;;;;16.70;11.25;;;0.60;99.90;;;;;;5055682;28;20516;-66
2021/12/22 09:09:39;;;;;;;16.15;11.60;;;0.30;99.90;;;;;;5073080;28;20035;-67
2021/12/22 09:12:08;;;;;;;17.98;12.10;;;0.60;99.90;;;;;;5070489;28;20032;-66
2021/12/22 09:14:36;;;;;;;15.30;11.30;;;0.80;99.90;;;;;;5055966;28;20025;-68
2021/12/22 09:17:02;;;;;;;19.70;11.77;;;1.20;99.90;;;;;;5055726;28;20059;-67
2021/12/22 09:19:28;;;;;;;16.65;10.73;;;1.10;99.90;;;;;;5054108;28;20025;-67
2021/12/22 09:21:53;;;;;;;15.80;11.20;;;0.70;99.90;;;;;;5072567;28;20020;-65
2021/12/22 09:24:19;;;;;;;18.15;11.02;;;0.80;99.90;;;;;;5056303;28;20059;-67
2021/12/22 09:26:45;;;;;;;16.65;12.35;;;1.20;99.90;;;;;;5039548;28;20110;-66
2021/12/22 09:29:12;;;;;;;18.35;11.75;;;1.30;99.90;;;;;;5033580;28;20033;-66
2021/12/22 09:31:38;;;;;;;18.42;11.85;;;1.50;99.90;;;;;;5048981;28;20027;-66
2021/12/22 09:34:05;;;;;;;14.05;10.18;;;1.30;99.90;;;;;;5049054;28;20086;-66
2021/12/22 09:36:31;;;;;;;14.95;10.05;;;1.60;99.90;;;;;;5048855;28;20467;-67
2021/12/22 09:38:56;;;;;;;14.82;10.68;;;1.80;99.90;;;;;;5049800;28;20111;-66
2021/12/22 09:41:22;;;;;;;16.13;10.93;;;1.60;99.90;;;;;;5054648;28;20024;-66
2021/12/22 09:43:53;;;;;;;16.80;11.15;;;2.00;99.90;;;;;;5053393;28;20064;-67
2021/12/22 09:46:22;;;;;;;16.08;10.55;;;2.00;99.90;;;;;;5052535;28;20099;-65
2021/12/22 09:53:58;;;;;;;19.00;11.07;;;2.10;99.90;;;;;;5116859;27;20038;-67
2021/12/22 09:56:27;;;;;;;17.88;10.88;;;1.90;99.90;;;;;;5135922;27;20027;-67
2021/12/22 09:58:54;;;;;;;17.50;11.52;;;1.60;99.90;;;;;;5155992;27;20036;-68
2021/12/22 10:01:23;;;;;;;19.40;11.93;;;1.60;99.90;;;;;;5134893;27;20011;-66
2021/12/22 10:03:50;;;;;;;18.45;11.55;;;2.00;99.90;;;;;;5153994;27;20027;-66
2021/12/22 10:06:16;;;;;;;16.42;10.80;;;2.10;99.90;;;;;;5116607;27;20055;-66
2021/12/22 10:08:52;;;;;;;17.98;11.77;;;1.60;99.90;;;;;;5152770;27;20495;-66
2021/12/22 10:11:18;;;;;;;19.83;11.68;;;1.80;99.90;;;;;;5134052;27;20051;-67
2021/12/22 10:13:44;;;;;;;14.32;10.60;;;2.00;99.90;;;;;;5116518;27;20447;-67
2021/12/22 10:16:17;;;;;;;21.67;11.48;;;2.40;99.90;;;;;;5118391;28;20068;-67
2021/12/22 10:18:43;;;;;;;16.92;11.15;;;2.30;99.90;;;;;;5139337;27;20130;-66
2021/12/22 10:21:13;;;;;;;17.70;10.93;;;2.30;99.90;;;;;;5133916;27;20495;-67
2021/12/22 10:23:44;;;;;;;17.55;11.82;;;1.90;99.90;;;;;;5133893;27;20502;-66
2021/12/22 10:26:12;;;;;;;16.85;11.75;;;1.70;99.90;;;;;;5131894;27;20459;-66
2021/12/22 10:29:00;;;;;;;20.25;13.02;;;2.20;99.90;;;;;;5133660;27;20026;-67
2021/12/22 10:31:44;;;;;;;18.77;12.05;;;2.40;99.90;;;;;;5133106;27;20037;-66
2021/12/22 10:34:12;;;;;;;15.38;10.25;;;2.60;99.90;;;;;;5119593;27;20118;-66
2021/12/22 10:36:54;;;;;;;15.07;10.23;;;2.50;99.90;;;;;;5152820;27;20031;-67
2021/12/22 10:42:05;;;;;;;16.42;11.25;;;2.60;99.90;;;;;;5111726;27;20438;-66
2021/12/22 10:44:35;;;;;;;14.20;10.27;;;3.10;99.90;;;;;;5111529;28;20039;-65
2021/12/22 10:47:23;;;;;;;14.00;10.02;;;3.10;99.90;;;;;;5108109;28;20023;-66
2021/12/22 10:50:07;;;;;;;17.65;9.70;;;3.20;99.90;;;;;;5073577;28;20477;-66
2021/12/22 10:52:34;;;;;;;13.60;10.02;;;3.40;99.90;;;;;;5089712;28;20112;-66
2021/12/22 10:55:10;;;;;;;18.73;11.15;;;3.50;99.90;;;;;;5089932;28;20077;-66
2021/12/22 10:57:38;;;;;;;16.55;10.90;;;3.60;99.90;;;;;;5089799;28;20420;-66
2021/12/22 11:00:25;;;;;;;17.33;11.18;;;3.80;99.90;;;;;;5089472;28;20021;-67
2021/12/22 11:03:13;;;;;;;17.92;12.00;;;3.70;99.90;;;;;;5112746;28;20493;-66
2021/12/22 11:05:48;;;;;;;18.98;11.85;;;3.70;99.90;;;;;;5089369;28;20400;-66
2021/12/22 11:08:21;;;;;;;16.00;10.45;;;3.70;99.90;;;;;;5089214;28;20366;-66
2021/12/22 11:10:49;;;;;;;13.27;9.20;;;3.80;99.90;;;;;;5089125;28;20032;-66
2021/12/22 11:13:20;;;;;;;14.77;8.73;;;4.90;99.90;;;;;;5086172;28;20024;-66
2021/12/22 11:15:53;;;;;;;11.00;7.35;;;5.00;99.90;;;;;;5111957;28;20040;-66
2021/12/22 11:18:36;;;;;;;11.63;8.48;;;4.60;99.90;;;;;;5106085;28;20031;-66
2021/12/22 11:21:29;;;;;;;9.93;8.13;;;4.80;99.90;;;;;;5110585;28;20424;-66
2021/12/22 11:23:58;;;;;;;8.93;7.65;;;4.50;99.90;;;;;;5100364;28;20115;-66
2021/12/22 11:26:24;;;;;;;10.65;7.45;;;4.00;99.90;;;;;;5089444;28;20029;-66
2021/12/22 11:28:50;;;;;;;12.40;8.38;;;3.60;99.90;;;;;;5089099;28;20031;-67
2021/12/22 11:31:15;;;;;;;13.55;7.40;;;3.70;99.90;;;;;;5090617;28;20060;-65
2021/12/22 11:33:44;;;;;;;13.90;8.15;;;3.60;99.90;;;;;;5072276;28;20397;-67
2021/12/22 11:36:12;;;;;;;11.27;6.93;;;3.40;99.90;;;;;;5080747;28;20108;-66
2021/12/22 11:38:40;;;;;;;9.18;6.93;;;3.40;99.90;;;;;;5103262;28;20165;-69
2021/12/22 11:41:13;;;;;;;11.10;7.57;;;3.50;99.90;;;;;;5101720;28;20047;-66
2021/12/22 11:43:40;;;;;;;14.35;10.88;;;3.20;99.90;;;;;;5097768;28;20160;-67
2021/12/22 11:46:07;;;;;;;11.68;9.00;;;3.00;99.90;;;;;;5109553;28;20039;-65
2021/12/22 11:48:36;;;;;;;11.73;7.20;;;2.70;99.90;;;;;;5108806;28;20465;-65
2021/12/22 11:51:21;;;;;;;12.35;7.50;;;2.50;99.90;;;;;;5107256;28;20085;-67
2021/12/22 11:54:09;;;;;;;11.23;7.50;;;2.30;99.90;;;;;;5095026;28;20531;-67
2021/12/22 11:56:51;;;;;;;10.40;7.65;;;2.50;99.90;;;;;;5096269;28;20032;-66
2021/12/22 11:59:39;;;;;;;8.70;6.78;;;2.50;99.90;;;;;;5095405;28;20362;-67
2021/12/22 12:02:22;;;;;;;10.50;7.43;;;2.60;99.90;;;;;;5093139;28;20454;-67
2021/12/22 12:04:54;;;;;;;12.55;7.55;;;2.60;99.90;;;;;;5058199;28;20056;-65
2021/12/22 12:07:51;;;;;;;10.25;7.28;;;2.60;99.90;;;;;;5074718;28;20031;-65
2021/12/22 12:10:38;;;;;;;10.25;7.43;;;2.50;99.90;;;;;;5076105;28;20052;-66
2021/12/22 12:13:09;;;;;;;13.60;8.30;;;2.30;99.90;;;;;;5077057;28;20466;-67
2021/12/22 12:22:22;;;;;;;15.02;8.77;;;2.30;99.90;;;;;;5050522;28;20406;-66
2021/12/22 12:25:00;;;;;;;16.58;8.65;;;2.20;99.90;;;;;;5035833;28;20036;-67
2021/12/22 12:27:47;;;;;;;14.52;9.35;;;2.10;99.90;;;;;;5049547;28;20079;-67
2021/12/22 12:30:23;;;;;;;12.93;8.98;;;2.00;99.90;;;;;;5051190;28;20021;-67
2021/12/22 12:32:53;;;;;;;16.15;10.10;;;2.10;99.90;;;;;;5050095;28;20112;-66
2021/12/22 12:38:12;;;;;;;16.05;9.82;;;2.20;99.90;;;;;;5107000;27;20445;-66
2021/12/22 12:41:00;;;;;;;20.50;10.90;;;2.10;99.90;;;;;;5111286;28;20532;-68
2021/12/22 12:43:51;;;;;;;16.25;10.63;;;2.10;99.90;;;;;;5109772;28;20111;-67
2021/12/22 12:51:58;;;;;;;20.38;12.23;;;2.00;99.90;;;;;;5022495;28;20395;-78
2021/12/22 12:57:21;;;;;;;18.63;11.18;;;2.00;99.90;;;;;;5112386;27;20183;-66
2021/12/22 12:59:50;;;;;;;21.02;11.50;;;1.80;99.90;;;;;;5077302;28;20044;-66
2021/12/22 13:02:29;;;;;;;19.33;11.30;;;1.80;99.90;;;;;;5073999;28;20103;-66
2021/12/22 13:05:16;;;;;;;21.77;12.48;;;1.90;99.90;;;;;;5107674;28;20114;-67
2021/12/22 13:07:43;;;;;;;21.48;11.75;;;1.90;99.90;;;;;;5099744;28;20019;-68
2021/12/22 13:10:15;;;;;;;18.08;11.10;;;1.80;99.90;;;;;;5097311;28;20468;-69